Time;durP1;ratioP1;P1;durP2;ratioP2;P2;SDS_P1;SDS_P2;PMS_P1;PMS_P2;Temp;Humidity;BMP_temperature;BMP_pressure;BME280_temperature;BME280_humidity;BME280_pressure;Samples;Min_cycle;Max_cycle;Signal;HPM_P1;HPM_P2
2022/10/11 00:02:56;;;;;;;5.07;1.65;;;;;;;;;;10360890;28;20042;-77
2022/10/11 00:07:59;;;;;;;1.83;1.20;;;;;;;;;;10359364;28;20180;-77
2022/10/11 00:13:04;;;;;;;1.88;1.10;;;;;;;;;;10358765;28;20507;-78
2022/10/11 00:18:08;;;;;;;4.20;1.35;;;;;;;;;;10362711;28;20053;-75
2022/10/11 00:23:11;;;;;;;1.48;0.88;;;;;;;;;;10358247;28;20113;-80
2022/10/11 00:28:16;;;;;;;1.98;0.90;;;;;;;;;;10356897;28;20055;-79
2022/10/11 00:33:19;;;;;;;2.53;0.90;;;;;;;;;;10356940;28;20052;-80
2022/10/11 00:38:22;;;;;;;2.13;0.75;;;;;;;;;;10337628;28;20049;-79
2022/10/11 00:43:30;;;;;;;2.60;0.80;;;;;;;;;;10363488;28;20046;-77
2022/10/11 00:48:38;;;;;;;1.40;0.80;;;;;;;;;;10364190;28;20045;-78
2022/10/11 00:53:42;;;;;;;1.23;0.80;;;;;;;;;;10379488;28;20049;-78
2022/10/11 00:58:47;;;;;;;0.85;0.70;;;;;;;;;;10345853;28;20049;-79
2022/10/11 01:03:50;;;;;;;1.05;0.68;;;;;;;;;;10378679;28;20050;-78
2022/10/11 01:08:54;;;;;;;3.00;0.88;;;;;;;;;;10344741;28;20482;-77
2022/10/11 01:14:14;;;;;;;2.53;0.90;;;;;;;;;;10363884;28;20041;-80
2022/10/11 01:19:35;;;;;;;1.52;0.82;;;;;;;;;;10379180;28;20092;-78
2022/10/11 01:25:00;;;;;;;1.35;1.02;;;;;;;;;;10366700;28;20045;-79
2022/10/11 01:30:20;;;;;;;1.55;0.88;;;;;;;;;;10366616;28;20041;-78
2022/10/11 01:35:30;;;;;;;2.08;0.98;;;;;;;;;;10366047;28;20046;-79
2022/10/11 01:40:37;;;;;;;2.67;0.88;;;;;;;;;;10348001;28;20045;-80
2022/10/11 01:45:42;;;;;;;2.38;1.00;;;;;;;;;;10366376;28;20030;-79
2022/10/11 01:50:47;;;;;;;2.33;1.00;;;;;;;;;;10364652;28;20405;-77
2022/10/11 01:55:54;;;;;;;1.30;0.80;;;;;;;;;;10379065;28;20046;-80
2022/10/11 02:01:09;;;;;;;1.52;0.80;;;;;;;;;;10364296;28;20649;-79
2022/10/11 02:06:17;;;;;;;3.42;0.80;;;;;;;;;;10363127;28;20049;-77
2022/10/11 02:11:24;;;;;;;1.27;0.80;;;;;;;;;;10362671;28;20501;-80
2022/10/11 02:16:34;;;;;;;0.63;0.63;;;;;;;;;;10362142;28;20046;-78
2022/10/11 02:21:41;;;;;;;3.22;0.90;;;;;;;;;;10360561;28;20042;-78
2022/10/11 02:26:47;;;;;;;1.83;0.98;;;;;;;;;;10359508;28;20482;-78
2022/10/11 02:31:53;;;;;;;1.67;0.80;;;;;;;;;;10341785;28;20522;-78
2022/10/11 02:37:03;;;;;;;2.07;0.63;;;;;;;;;;10359749;28;20058;-78
2022/10/11 02:42:11;;;;;;;1.80;0.57;;;;;;;;;;10341681;28;20046;-76
2022/10/11 02:47:16;;;;;;;1.48;0.88;;;;;;;;;;10374215;28;20069;-77
2022/10/11 02:52:19;;;;;;;1.38;0.80;;;;;;;;;;10340904;28;20073;-79
2022/10/11 02:57:23;;;;;;;1.20;0.60;;;;;;;;;;10359573;28;20049;-79
2022/10/11 03:02:27;;;;;;;2.60;0.70;;;;;;;;;;10374597;28;20045;-77
2022/10/11 03:07:31;;;;;;;2.67;0.93;;;;;;;;;;10353144;28;20053;-80
2022/10/11 03:12:34;;;;;;;3.95;0.98;;;;;;;;;;10371904;28;20049;-80
2022/10/11 03:17:39;;;;;;;2.20;0.95;;;;;;;;;;10351915;28;20064;-78
2022/10/11 03:22:42;;;;;;;2.45;1.20;;;;;;;;;;10357219;28;20045;-76
2022/10/11 03:27:45;;;;;;;3.00;1.25;;;;;;;;;;10372447;28;20053;-79
2022/10/11 03:32:50;;;;;;;2.28;1.15;;;;;;;;;;10371908;28;20540;-79
2022/10/11 03:37:53;;;;;;;2.90;1.08;;;;;;;;;;10338576;28;20049;-79
2022/10/11 03:42:56;;;;;;;0.98;0.70;;;;;;;;;;10342276;28;20042;-80
2022/10/11 03:48:01;;;;;;;2.15;0.80;;;;;;;;;;10360474;28;20041;-76
2022/10/11 03:53:06;;;;;;;1.73;1.42;;;;;;;;;;10373652;28;20042;-80
2022/10/11 03:58:09;;;;;;;1.73;1.30;;;;;;;;;;10358031;28;20042;-81
2022/10/11 04:03:14;;;;;;;2.78;1.58;;;;;;;;;;10357671;28;20042;-80
2022/10/11 04:08:17;;;;;;;6.00;1.50;;;;;;;;;;10357092;28;20057;-78
2022/10/11 04:13:21;;;;;;;3.78;1.75;;;;;;;;;;10358007;28;20049;-80
2022/10/11 04:18:25;;;;;;;3.55;1.58;;;;;;;;;;10363886;28;20044;-77
2022/10/11 04:23:30;;;;;;;5.07;1.80;;;;;;;;;;10380653;28;20049;-79
2022/10/11 04:28:34;;;;;;;2.15;1.48;;;;;;;;;;10381270;28;20052;-79
2022/10/11 04:33:38;;;;;;;4.18;1.08;;;;;;;;;;10372717;28;20132;-76
2022/10/11 04:38:42;;;;;;;2.20;1.00;;;;;;;;;;10345956;28;20073;-80
2022/10/11 04:43:45;;;;;;;3.70;1.13;;;;;;;;;;10364215;28;20034;-78
2022/10/11 04:48:50;;;;;;;4.43;1.10;;;;;;;;;;10379354;28;20057;-78
2022/10/11 04:53:53;;;;;;;1.63;1.00;;;;;;;;;;10377871;28;20057;-80
2022/10/11 04:58:57;;;;;;;1.30;1.10;;;;;;;;;;10362976;28;20041;-80
2022/10/11 05:04:01;;;;;;;1.65;0.90;;;;;;;;;;10377619;28;20038;-77
2022/10/11 05:09:05;;;;;;;0.98;0.88;;;;;;;;;;10344759;28;20046;-80
2022/10/11 05:14:08;;;;;;;3.08;1.10;;;;;;;;;;10344922;28;20065;-79
2022/10/11 05:19:13;;;;;;;1.70;1.15;;;;;;;;;;10344208;28;20049;-78
2022/10/11 05:24:16;;;;;;;2.75;1.45;;;;;;;;;;10343923;28;20038;-77
2022/10/11 05:29:19;;;;;;;2.85;1.08;;;;;;;;;;10375972;28;20046;-78
2022/10/11 05:34:24;;;;;;;2.35;1.45;;;;;;;;;;10361371;28;20042;-77
2022/10/11 05:39:27;;;;;;;3.45;1.48;;;;;;;;;;10360715;28;20050;-79
2022/10/11 05:44:30;;;;;;;2.67;1.55;;;;;;;;;;10342707;28;20038;-80
2022/10/11 05:49:35;;;;;;;3.70;1.77;;;;;;;;;;10361813;28;20046;-76
2022/10/11 05:54:38;;;;;;;3.15;1.70;;;;;;;;;;10343013;28;20045;-78
2022/10/11 05:59:42;;;;;;;2.70;1.45;;;;;;;;;;10361812;28;20048;-80
2022/10/11 06:04:46;;;;;;;4.53;1.98;;;;;;;;;;10343266;28;20038;-77
2022/10/11 06:09:50;;;;;;;4.07;2.17;;;;;;;;;;10344048;28;20076;-76
2022/10/11 06:14:55;;;;;;;4.90;2.20;;;;;;;;;;10373488;28;20089;-78
2022/10/11 06:20:00;;;;;;;4.90;2.22;;;;;;;;;;10339545;28;20041;-78
2022/10/11 06:25:03;;;;;;;6.97;2.80;;;;;;;;;;10339328;28;20053;-78
2022/10/11 06:30:08;;;;;;;5.38;2.40;;;;;;;;;;10357236;28;20043;-77
2022/10/11 06:35:12;;;;;;;5.65;2.88;;;;;;;;;;10355921;28;20128;-77
2022/10/11 06:40:16;;;;;;;4.55;2.50;;;;;;;;;;10356743;28;20509;-80
2022/10/11 06:45:19;;;;;;;2.67;1.60;;;;;;;;;;10337543;28;20034;-77
2022/10/11 06:50:24;;;;;;;4.70;2.17;;;;;;;;;;10355500;28;20046;-78
2022/10/11 06:55:37;;;;;;;4.00;1.92;;;;;;;;;;10355869;28;20069;-76
2022/10/11 07:01:03;;;;;;;2.72;1.80;;;;;;;;;;10355921;28;20433;-76
2022/10/11 07:06:10;;;;;;;2.25;1.52;;;;;;;;;;10338122;28;20126;-77
2022/10/11 07:11:15;;;;;;;3.63;1.75;;;;;;;;;;10354909;28;20037;-78
2022/10/11 07:16:20;;;;;;;2.10;1.48;;;;;;;;;;10354443;28;20042;-78
2022/10/11 07:21:24;;;;;;;3.85;1.63;;;;;;;;;;10336706;28;20057;-77
2022/10/11 07:26:28;;;;;;;2.22;1.60;;;;;;;;;;10354346;28;20042;-78
2022/10/11 07:31:36;;;;;;;2.30;1.10;;;;;;;;;;10353886;28;20497;-78
2022/10/11 07:36:40;;;;;;;2.25;1.40;;;;;;;;;;10352990;28;20042;-78
2022/10/11 07:41:44;;;;;;;2.22;1.00;;;;;;;;;;10353387;28;20554;-80
2022/10/11 07:46:48;;;;;;;1.80;1.00;;;;;;;;;;10336645;28;20057;-78
2022/10/11 07:51:52;;;;;;;1.65;1.10;;;;;;;;;;10335425;28;20057;-78
2022/10/11 07:56:56;;;;;;;1.48;1.00;;;;;;;;;;10353737;28;20058;-78
2022/10/11 08:01:59;;;;;;;3.40;1.20;;;;;;;;;;10353772;28;20045;-79
2022/10/11 08:07:04;;;;;;;2.78;1.30;;;;;;;;;;10353023;28;20116;-77
2022/10/11 08:12:07;;;;;;;3.70;1.50;;;;;;;;;;10353949;28;20037;-77
2022/10/11 08:17:10;;;;;;;1.80;1.10;;;;;;;;;;10335950;28;20670;-79
2022/10/11 08:22:15;;;;;;;2.33;1.23;;;;;;;;;;10353408;28;20081;-77
2022/10/11 08:27:19;;;;;;;2.33;1.10;;;;;;;;;;10352535;28;20056;-79
2022/10/11 08:32:22;;;;;;;6.85;3.03;;;;;;;;;;10335690;28;20412;-79
2022/10/11 08:37:27;;;;;;;5.88;2.63;;;;;;;;;;10351675;28;20038;-78
2022/10/11 08:42:35;;;;;;;12.32;3.10;;;;;;;;;;10334668;28;20402;-79
2022/10/11 08:47:42;;;;;;;3.25;1.77;;;;;;;;;;10345591;28;20056;-79
2022/10/11 08:52:52;;;;;;;3.60;1.63;;;;;;;;;;10351973;28;20056;-78
2022/10/11 08:57:57;;;;;;;4.13;1.40;;;;;;;;;;10367613;28;20379;-78
2022/10/11 09:03:07;;;;;;;4.10;1.60;;;;;;;;;;10338885;28;20045;-79
2022/10/11 09:08:21;;;;;;;3.40;1.15;;;;;;;;;;10360988;28;20137;-78
2022/10/11 09:13:51;;;;;;;3.47;1.15;;;;;;;;;;10360800;28;20053;-76
2022/10/11 09:19:09;;;;;;;4.65;0.95;;;;;;;;;;10354905;28;20054;-79
2022/10/11 09:24:36;;;;;;;2.63;1.00;;;;;;;;;;10375637;28;20041;-79
2022/10/11 09:29:55;;;;;;;3.35;0.90;;;;;;;;;;10334781;28;20645;-78
2022/10/11 09:35:08;;;;;;;2.03;0.88;;;;;;;;;;10360387;28;20057;-78
2022/10/11 09:40:25;;;;;;;2.67;0.98;;;;;;;;;;10359374;28;20050;-79
2022/10/11 09:45:28;;;;;;;2.63;1.35;;;;;;;;;;10374425;28;20034;-77
2022/10/11 09:50:32;;;;;;;8.68;2.92;;;;;;;;;;10359302;28;20042;-77
2022/10/11 09:55:41;;;;;;;3.10;1.30;;;;;;;;;;10359234;28;20046;-81
2022/10/11 10:00:58;;;;;;;6.28;1.95;;;;;;;;;;10340972;28;20057;-77
2022/10/11 10:06:13;;;;;;;5.60;1.65;;;;;;;;;;10373315;28;20490;-78
2022/10/11 10:11:19;;;;;;;3.45;1.15;;;;;;;;;;10357869;28;20048;-77
2022/10/11 10:16:25;;;;;;;4.43;1.13;;;;;;;;;;10357470;28;20045;-79
2022/10/11 10:21:31;;;;;;;6.97;1.10;;;;;;;;;;10358229;28;20055;-78
2022/10/11 10:26:38;;;;;;;4.90;0.88;;;;;;;;;;10374211;28;20289;-79
2022/10/11 10:31:55;;;;;;;3.13;0.80;;;;;;;;;;10359012;28;20069;-77
2022/10/11 10:37:26;;;;;;;6.68;0.80;;;;;;;;;;10357798;28;20649;-79
2022/10/11 10:42:31;;;;;;;4.93;0.85;;;;;;;;;;10356580;28;20195;-78
2022/10/11 10:47:53;;;;;;;2.10;0.40;;;;;;;;;;10356470;28;20054;-78
2022/10/11 10:53:11;;;;;;;3.20;0.80;;;;;;;;;;10336704;28;20070;-79
2022/10/11 10:58:30;;;;;;;3.55;0.90;;;;;;;;;;10377556;28;20038;-78
2022/10/11 11:03:43;;;;;;;4.57;0.75;;;;;;;;;;10362542;28;20068;-80
2022/10/11 11:08:58;;;;;;;1.90;0.65;;;;;;;;;;10338474;28;20045;-77
2022/10/11 11:14:12;;;;;;;5.30;0.60;;;;;;;;;;10363468;28;20041;-76
2022/10/11 11:19:29;;;;;;;1.65;0.55;;;;;;;;;;10377190;28;20044;-80
2022/10/11 11:24:41;;;;;;;3.00;0.70;;;;;;;;;;10360553;28;20041;-78
2022/10/11 11:29:55;;;;;;;1.90;0.55;;;;;;;;;;10361009;28;20046;-80
2022/10/11 11:35:03;;;;;;;2.15;0.45;;;;;;;;;;10375139;28;20521;-81
2022/10/11 11:40:16;;;;;;;3.63;0.90;;;;;;;;;;10360836;28;20073;-79
2022/10/11 11:45:27;;;;;;;1.00;0.50;;;;;;;;;;10374975;28;20050;-79
2022/10/11 11:50:36;;;;;;;2.35;0.60;;;;;;;;;;10342639;28;20037;-80
2022/10/11 11:55:48;;;;;;;2.58;0.85;;;;;;;;;;10351592;28;20125;-80
2022/10/11 12:01:02;;;;;;;2.90;0.43;;;;;;;;;;10358863;28;20046;-80
2022/10/11 12:06:25;;;;;;;3.40;0.60;;;;;;;;;;10375232;28;20136;-81
2022/10/11 12:11:39;;;;;;;2.70;0.50;;;;;;;;;;10373377;28;20137;-80
2022/10/11 12:17:21;;;;;;;2.08;0.63;;;;;;;;;;10340526;28;20057;-79
2022/10/11 12:22:57;;;;;;;3.92;0.57;;;;;;;;;;10343458;28;20050;-77
2022/10/11 12:28:01;;;;;;;1.98;0.50;;;;;;;;;;10365771;28;20052;-78
2022/10/11 12:33:12;;;;;;;2.58;0.57;;;;;;;;;;10357159;28;20057;-79
2022/10/11 12:38:20;;;;;;;2.22;0.80;;;;;;;;;;10362475;28;20057;-78
2022/10/11 12:43:36;;;;;;;2.03;0.38;;;;;;;;;;10364631;28;20798;-75
2022/10/11 12:48:50;;;;;;;1.83;0.47;;;;;;;;;;10365356;28;20045;-79
2022/10/11 12:54:16;;;;;;;1.55;0.40;;;;;;;;;;10380165;28;20057;-81
2022/10/11 12:59:43;;;;;;;3.78;0.57;;;;;;;;;;10372047;28;20100;-78
2022/10/11 13:04:46;;;;;;;1.05;0.40;;;;;;;;;;10364111;28;20050;-79
2022/10/11 13:09:54;;;;;;;6.10;0.70;;;;;;;;;;10350096;28;20046;-79
2022/10/11 13:15:02;;;;;;;1.10;0.43;;;;;;;;;;10366505;28;20046;-79
2022/10/11 13:20:15;;;;;;;1.65;0.70;;;;;;;;;;10347272;28;20053;-79
2022/10/11 13:25:22;;;;;;;1.98;0.30;;;;;;;;;;10365927;28;20042;-77
2022/10/11 13:30:27;;;;;;;2.35;0.32;;;;;;;;;;10348223;28;20411;-78
2022/10/11 13:35:33;;;;;;;2.42;0.50;;;;;;;;;;10365218;28;20056;-79
2022/10/11 13:40:38;;;;;;;0.90;0.38;;;;;;;;;;10375292;28;20038;-77
2022/10/11 13:45:41;;;;;;;2.05;0.40;;;;;;;;;;10364853;28;20713;-80
2022/10/11 13:50:51;;;;;;;1.63;0.40;;;;;;;;;;10376881;28;20083;-78
2022/10/11 13:55:58;;;;;;;2.00;0.85;;;;;;;;;;10365177;28;20061;-79
2022/10/11 14:01:04;;;;;;;1.13;0.30;;;;;;;;;;10378244;28;20047;-80
2022/10/11 14:06:08;;;;;;;2.13;0.40;;;;;;;;;;10378373;28;20424;-78
2022/10/11 14:11:14;;;;;;;2.40;0.43;;;;;;;;;;10365214;28;20048;-78
2022/10/11 14:16:29;;;;;;;1.90;0.50;;;;;;;;;;10366031;28;20049;-78
2022/10/11 14:21:47;;;;;;;1.00;0.27;;;;;;;;;;10365327;28;20049;-79
2022/10/11 14:26:53;;;;;;;1.20;0.30;;;;;;;;;;10356044;28;20057;-78
2022/10/11 14:31:58;;;;;;;;;;;;;;;;;;10345486;28;20054;-79
2022/10/11 14:37:07;;;;;;;1.33;0.37;;;;;;;;;;10344578;28;19921;-77
2022/10/11 14:42:12;;;;;;;3.72;0.60;;;;;;;;;;10386569;28;20050;-77
2022/10/11 14:47:17;;;;;;;3.05;0.40;;;;;;;;;;10357055;28;20516;-78
2022/10/11 14:52:20;;;;;;;1.75;0.30;;;;;;;;;;10358968;28;20050;-78
2022/10/11 14:57:25;;;;;;;1.35;0.40;;;;;;;;;;10375268;28;20523;-78
2022/10/11 15:02:28;;;;;;;3.42;0.55;;;;;;;;;;10359790;28;20046;-78
2022/10/11 15:07:32;;;;;;;2.05;0.32;;;;;;;;;;10360209;28;20042;-78
2022/10/11 15:12:36;;;;;;;1.45;0.45;;;;;;;;;;10343064;28;20046;-78
2022/10/11 15:17:39;;;;;;;1.48;0.40;;;;;;;;;;10341597;28;20521;-78
2022/10/11 15:22:43;;;;;;;0.90;0.55;;;;;;;;;;10359009;28;20054;-78
2022/10/11 15:27:47;;;;;;;1.38;0.50;;;;;;;;;;10356728;28;20046;-78
2022/10/11 15:32:51;;;;;;;1.92;0.50;;;;;;;;;;10360938;28;20049;-77
2022/10/11 15:37:57;;;;;;;1.15;0.38;;;;;;;;;;10375172;28;20057;-77
2022/10/11 15:43:02;;;;;;;1.17;0.40;;;;;;;;;;10346545;28;20041;-78
2022/10/11 15:48:06;;;;;;;1.40;0.38;;;;;;;;;;10359468;28;20540;-77
2022/10/11 15:53:12;;;;;;;1.30;0.40;;;;;;;;;;10359367;28;20529;-77
2022/10/11 15:58:19;;;;;;;1.67;0.37;;;;;;;;;;10359036;28;20085;-77
2022/10/11 16:03:24;;;;;;;2.20;0.60;;;;;;;;;;10357466;28;20296;-77
2022/10/11 16:08:30;;;;;;;2.30;0.50;;;;;;;;;;10358060;28;20061;-78
2022/10/11 16:13:35;;;;;;;0.68;0.20;;;;;;;;;;10360166;28;20050;-77
2022/10/11 16:18:39;;;;;;;2.40;0.60;;;;;;;;;;10359154;28;20049;-77
2022/10/11 16:23:42;;;;;;;3.90;0.90;;;;;;;;;;10365189;28;20046;-77
2022/10/11 16:28:47;;;;;;;7.65;1.80;;;;;;;;;;10366314;28;20042;-77
2022/10/11 16:33:51;;;;;;;4.15;1.63;;;;;;;;;;10363949;28;20119;-77
2022/10/11 16:38:55;;;;;;;4.47;1.90;;;;;;;;;;10357761;28;20046;-77
2022/10/11 16:43:59;;;;;;;8.77;3.42;;;;;;;;;;10365630;28;20493;-77
2022/10/11 16:49:03;;;;;;;15.20;5.68;;;;;;;;;;10363755;28;20413;-77
2022/10/11 16:54:06;;;;;;;10.55;6.28;;;;;;;;;;10364107;28;20612;-77
2022/10/11 16:59:11;;;;;;;15.75;8.30;;;;;;;;;;10363767;28;20045;-77
2022/10/11 17:04:15;;;;;;;8.82;5.05;;;;;;;;;;10361862;28;20042;-77
2022/10/11 17:09:18;;;;;;;6.43;3.80;;;;;;;;;;10360820;28;20038;-77
2022/10/11 17:14:23;;;;;;;4.18;2.55;;;;;;;;;;10362851;28;20510;-76
2022/10/11 17:19:26;;;;;;;4.47;2.45;;;;;;;;;;10361940;28;20034;-77
2022/10/11 17:24:29;;;;;;;5.25;2.13;;;;;;;;;;10360420;28;20046;-77
2022/10/11 17:29:34;;;;;;;2.95;1.58;;;;;;;;;;10361096;28;20423;-77
2022/10/11 17:34:37;;;;;;;6.40;2.08;;;;;;;;;;10335445;28;20052;-77
2022/10/11 17:39:40;;;;;;;3.80;1.75;;;;;;;;;;10358797;28;20060;-77
2022/10/11 17:44:45;;;;;;;3.95;1.30;;;;;;;;;;10359370;28;20049;-77
2022/10/11 17:49:48;;;;;;;3.20;1.80;;;;;;;;;;10360879;28;20042;-80
2022/10/11 17:54:52;;;;;;;3.13;1.20;;;;;;;;;;10344964;28;20050;-77
2022/10/11 17:59:56;;;;;;;3.10;1.55;;;;;;;;;;10336968;28;20045;-77
2022/10/11 18:05:00;;;;;;;3.50;1.58;;;;;;;;;;10359862;28;20042;-77
2022/10/11 18:10:04;;;;;;;3.00;1.65;;;;;;;;;;10359036;28;20125;-80
2022/10/11 18:15:12;;;;;;;3.53;1.77;;;;;;;;;;10359453;28;20745;-79
2022/10/11 18:20:16;;;;;;;9.00;2.53;;;;;;;;;;10358135;28;20034;-77
2022/10/11 18:25:19;;;;;;;5.45;2.88;;;;;;;;;;10371781;28;20042;-77
2022/10/11 18:30:24;;;;;;;6.22;2.20;;;;;;;;;;10366813;28;20414;-77
2022/10/11 18:35:27;;;;;;;5.25;2.72;;;;;;;;;;10367591;28;20549;-77
2022/10/11 18:40:31;;;;;;;6.47;3.10;;;;;;;;;;10349631;28;20069;-77
2022/10/11 18:45:36;;;;;;;7.22;3.47;;;;;;;;;;10349547;28;20045;-77
2022/10/11 18:50:39;;;;;;;5.35;3.22;;;;;;;;;;10339779;28;20555;-77
2022/10/11 18:55:42;;;;;;;6.88;3.25;;;;;;;;;;10355090;28;20054;-77
2022/10/11 19:00:47;;;;;;;11.18;2.83;;;;;;;;;;10340464;28;20513;-77
2022/10/11 19:05:50;;;;;;;5.75;2.83;;;;;;;;;;10366345;28;20052;-77
2022/10/11 19:10:53;;;;;;;6.60;3.20;;;;;;;;;;10334412;28;20038;-77
2022/10/11 19:16:04;;;;;;;5.53;2.95;;;;;;;;;;10352727;28;20525;-76
2022/10/11 19:21:10;;;;;;;4.03;2.50;;;;;;;;;;10345436;28;20056;-77
2022/10/11 19:26:16;;;;;;;4.43;2.75;;;;;;;;;;10368384;28;20113;-76
2022/10/11 19:31:20;;;;;;;5.50;2.83;;;;;;;;;;10334889;28;20399;-77
2022/10/11 19:36:24;;;;;;;3.90;2.38;;;;;;;;;;10336051;28;20498;-80
2022/10/11 19:41:28;;;;;;;5.45;2.90;;;;;;;;;;10329084;28;20177;-82
2022/10/11 19:46:32;;;;;;;7.05;3.13;;;;;;;;;;10349369;28;20052;-77
2022/10/11 19:51:56;;;;;;;6.82;3.25;;;;;;;;;;10372137;28;20088;-80
2022/10/11 19:56:59;;;;;;;6.60;3.70;;;;;;;;;;10355239;28;20050;-77
2022/10/11 20:02:04;;;;;;;7.20;3.67;;;;;;;;;;10354866;28;20049;-78
2022/10/11 20:07:07;;;;;;;7.97;3.33;;;;;;;;;;10358150;28;20402;-78
2022/10/11 20:12:10;;;;;;;5.63;3.28;;;;;;;;;;10342347;28;20041;-80
2022/10/11 20:17:15;;;;;;;7.05;3.92;;;;;;;;;;10372661;28;20472;-80
2022/10/11 20:22:18;;;;;;;6.32;3.55;;;;;;;;;;10331033;28;20062;-76
2022/10/11 20:27:22;;;;;;;8.77;4.03;;;;;;;;;;10337899;28;20394;-79
2022/10/11 20:32:27;;;;;;;8.85;5.13;;;;;;;;;;10348747;28;20509;-79
2022/10/11 20:37:30;;;;;;;8.68;5.72;;;;;;;;;;10341132;28;20056;-79
2022/10/11 20:42:33;;;;;;;8.38;5.15;;;;;;;;;;10331819;28;20048;-79
2022/10/11 20:47:38;;;;;;;8.98;5.10;;;;;;;;;;10330036;28;20573;-81
2022/10/11 20:52:41;;;;;;;7.00;3.97;;;;;;;;;;10328223;28;20062;-81
2022/10/11 20:57:45;;;;;;;5.88;3.80;;;;;;;;;;10332963;28;20038;-77
2022/10/11 21:02:51;;;;;;;7.97;3.83;;;;;;;;;;10357887;28;20469;-77
2022/10/11 21:07:54;;;;;;;7.85;4.30;;;;;;;;;;10335618;28;20049;-79
2022/10/11 21:12:58;;;;;;;6.13;3.60;;;;;;;;;;10314441;28;20046;-78
2022/10/11 21:18:02;;;;;;;8.85;4.45;;;;;;;;;;10363868;28;20051;-78
2022/10/11 21:23:06;;;;;;;7.10;4.10;;;;;;;;;;10374149;28;20046;-79
2022/10/11 21:28:09;;;;;;;6.30;3.13;;;;;;;;;;10358810;28;20616;-80
2022/10/11 21:33:13;;;;;;;5.18;3.17;;;;;;;;;;10362073;28;20042;-78
2022/10/11 21:38:17;;;;;;;8.30;3.88;;;;;;;;;;10324535;28;20049;-79
2022/10/11 21:43:20;;;;;;;7.63;3.70;;;;;;;;;;10330701;28;20051;-80
2022/10/11 21:48:24;;;;;;;9.80;4.13;;;;;;;;;;10353349;28;20062;-78
2022/10/11 21:53:28;;;;;;;15.15;5.50;;;;;;;;;;10361141;28;20498;-79
2022/10/11 21:58:31;;;;;;;12.15;5.85;;;;;;;;;;10338089;28;20046;-79
2022/10/11 22:03:35;;;;;;;12.43;5.72;;;;;;;;;;10321132;28;20183;-77
2022/10/11 22:08:40;;;;;;;9.50;5.00;;;;;;;;;;10338891;28;20048;-78
2022/10/11 22:13:43;;;;;;;10.45;5.10;;;;;;;;;;10353340;28;20532;-79
2022/10/11 22:18:48;;;;;;;9.95;5.10;;;;;;;;;;10350496;28;20711;-78
2022/10/11 22:23:53;;;;;;;10.30;5.53;;;;;;;;;;10358434;28;20061;-78
2022/10/11 22:28:56;;;;;;;10.75;4.97;;;;;;;;;;10338010;28;20052;-79
2022/10/11 22:34:01;;;;;;;10.57;5.85;;;;;;;;;;10341290;28;20046;-77
2022/10/11 22:39:06;;;;;;;9.93;5.85;;;;;;;;;;10359155;28;20053;-78
2022/10/11 22:44:11;;;;;;;9.55;5.05;;;;;;;;;;10345164;28;20065;-77
2022/10/11 22:49:16;;;;;;;9.27;4.47;;;;;;;;;;10339291;28;20133;-79
2022/10/11 22:54:19;;;;;;;8.73;4.28;;;;;;;;;;10351153;28;20418;-78
2022/10/11 22:59:22;;;;;;;6.38;3.15;;;;;;;;;;10333021;28;20055;-78
2022/10/11 23:04:27;;;;;;;5.95;3.03;;;;;;;;;;10333042;28;20653;-75
2022/10/11 23:09:30;;;;;;;8.18;4.30;;;;;;;;;;10325695;28;20053;-77
2022/10/11 23:14:33;;;;;;;7.97;4.03;;;;;;;;;;10316510;28;20538;-78
2022/10/11 23:19:38;;;;;;;9.50;4.03;;;;;;;;;;10334209;28;20046;-77
2022/10/11 23:24:41;;;;;;;8.25;3.80;;;;;;;;;;10357094;28;20042;-77
2022/10/11 23:29:45;;;;;;;7.10;3.63;;;;;;;;;;10350397;28;20525;-79
2022/10/11 23:34:50;;;;;;;8.45;3.85;;;;;;;;;;10340421;28;20056;-77
2022/10/11 23:39:53;;;;;;;7.60;3.75;;;;;;;;;;10331636;28;20046;-79
2022/10/11 23:44:56;;;;;;;9.23;3.63;;;;;;;;;;10343667;28;20045;-78
2022/10/11 23:50:01;;;;;;;8.02;3.10;;;;;;;;;;10342185;28;20038;-80
2022/10/11 23:55:05;;;;;;;7.30;3.17;;;;;;;;;;10349374;28;20049;-76
